createdAt,value
2023-02-22T00:01:08.260Z,99958.66
2023-02-22T00:03:36.616Z,99958.84
2023-02-22T00:06:07.889Z,99960.28
2023-02-22T00:08:38.237Z,99957.06
2023-02-22T00:11:09.990Z,99956.47
2023-02-22T00:13:39.654Z,99949.78
2023-02-22T00:16:08.484Z,99952.63
2023-02-22T00:18:37.812Z,99942.50
2023-02-22T00:21:10.672Z,99951.44
2023-02-22T00:23:46.421Z,99945.53
2023-02-22T00:26:18.416Z,99945.94
2023-02-22T00:28:50.013Z,99951.44
2023-02-22T00:31:18.797Z,99945.56
2023-02-22T00:33:47.860Z,99948.63
2023-02-22T00:36:17.566Z,99946.00
2023-02-22T00:38:45.892Z,99943.94
2023-02-22T00:41:14.442Z,99934.44
2023-02-22T00:43:43.005Z,99937.50
2023-02-22T00:46:11.347Z,99938.50
2023-02-22T00:48:39.639Z,99933.66
2023-02-22T00:51:08.053Z,99941.75
2023-02-22T00:53:37.732Z,99935.66
2023-02-22T00:56:07.157Z,99930.84
2023-02-22T00:58:35.454Z,99929.19
2023-02-22T01:01:03.845Z,99928.41
2023-02-22T01:03:32.590Z,99928.81
2023-02-22T01:06:01.157Z,99915.25
2023-02-22T01:08:31.193Z,99924.97
2023-02-22T01:11:00.916Z,99914.03
2023-02-22T01:13:29.232Z,99912.44
2023-02-22T01:15:57.777Z,99915.28
2023-02-22T01:18:26.907Z,99903.34
2023-02-22T01:20:55.334Z,99902.72
2023-02-22T01:23:23.655Z,99900.09
2023-02-22T01:25:52.008Z,99899.69
2023-02-22T01:28:22.520Z,99904.13
2023-02-22T01:30:51.954Z,99900.94
2023-02-22T01:33:20.422Z,99889.78
2023-02-22T01:35:50.874Z,99894.25
2023-02-22T01:38:19.398Z,99894.41
2023-02-22T01:40:50.865Z,99889.34
2023-02-22T01:43:25.621Z,99884.31
2023-02-22T01:46:01.461Z,99884.50
2023-02-22T01:48:40.227Z,99888.16
2023-02-22T01:51:15.195Z,99880.66
2023-02-22T01:53:50.063Z,99886.94
2023-02-22T01:56:20.603Z,99873.16
2023-02-22T01:58:54.235Z,99868.13
2023-02-22T02:01:31.059Z,99874.41
2023-02-22T02:04:06.705Z,99873.78
2023-02-22T02:06:39.217Z,99868.94
2023-02-22T02:09:15.819Z,99869.75
2023-02-22T02:11:44.618Z,99864.06
2023-02-22T02:14:15.250Z,99868.53
2023-02-22T02:16:47.487Z,99865.31
2023-02-22T02:19:38.498Z,99863.88
2023-02-22T02:22:25.590Z,99865.91
2023-02-22T02:25:45.259Z,99858.41
2023-02-22T02:28:44.624Z,99860.47
2023-02-22T02:32:02.460Z,99856.63
2023-02-22T02:34:37.808Z,99851.38
2023-02-22T02:37:12.561Z,99847.31
2023-02-22T02:39:47.956Z,99843.66
2023-02-22T02:42:23.249Z,99837.59
2023-02-22T02:44:57.700Z,99833.38
2023-02-22T02:47:31.773Z,99828.31
2023-02-22T02:50:06.784Z,99828.50
2023-02-22T02:52:44.119Z,99828.50
2023-02-22T02:55:13.624Z,99826.91
2023-02-22T02:57:43.026Z,99827.09
2023-02-22T03:00:22.643Z,99822.03
2023-02-22T03:03:09.010Z,99820.63
2023-02-22T03:06:03.623Z,99823.47
2023-02-22T03:08:43.137Z,99819.22
2023-02-22T03:11:16.226Z,99817.59
2023-02-22T03:13:55.594Z,99812.72
2023-02-22T03:16:35.187Z,99807.69
2023-02-22T03:19:10.649Z,99806.09
2023-02-22T03:21:46.992Z,99816.78
2023-02-22T03:24:22.070Z,99812.53
2023-02-22T03:26:58.880Z,99811.75
2023-02-22T03:29:30.825Z,99806.88
2023-02-22T03:32:01.543Z,99806.28
2023-02-22T03:34:37.882Z,99801.22
2023-02-22T03:37:14.676Z,99801.44
2023-02-22T03:39:47.700Z,99809.50
2023-02-22T03:42:20.910Z,99796.78
2023-02-22T03:44:51.266Z,99808.91
2023-02-22T03:47:24.662Z,99803.03
2023-02-22T03:49:59.625Z,99805.66
2023-02-22T03:52:28.129Z,99805.88
2023-02-22T03:54:57.850Z,99795.56
2023-02-22T03:57:29.912Z,99796.59
2023-02-22T04:00:09.770Z,99796.19
2023-02-22T04:02:45.730Z,99788.50
2023-02-22T04:05:20.276Z,99790.50
2023-02-22T04:07:49.540Z,99788.09
2023-02-22T04:10:19.700Z,99792.50
2023-02-22T04:12:48.099Z,99789.91
2023-02-22T04:15:20.137Z,99789.31
2023-02-22T04:17:49.859Z,99789.47
2023-02-22T04:20:20.832Z,99791.31
2023-02-22T04:22:55.249Z,99785.47
2023-02-22T04:25:25.625Z,99781.19
2023-02-22T04:27:54.440Z,99782.22
2023-02-22T04:30:34.448Z,99777.19
2023-02-22T04:33:04.536Z,99782.63
2023-02-22T04:35:35.477Z,99786.03
2023-02-22T04:38:05.044Z,99779.59
2023-02-22T04:40:35.222Z,99787.28
2023-02-22T04:43:03.634Z,99789.91
2023-02-22T04:45:32.108Z,99779.59
2023-02-22T04:48:00.954Z,99789.28
2023-02-22T04:50:29.408Z,99793.72
2023-02-22T04:52:57.992Z,99782.63
2023-02-22T04:55:28.140Z,99783.63
2023-02-22T04:57:58.726Z,99783.03
2023-02-22T05:00:27.558Z,99779.59
2023-02-22T05:03:01.040Z,99782.22
2023-02-22T05:05:29.534Z,99783.22
2023-02-22T05:07:57.841Z,99789.47
2023-02-22T05:10:26.280Z,99786.06
2023-02-22T05:12:54.630Z,99773.94
2023-02-22T05:15:25.872Z,99786.22
2023-02-22T05:17:54.545Z,99791.69
2023-02-22T05:20:27.830Z,99776.34
2023-02-22T05:22:56.765Z,99783.19
2023-02-22T05:25:25.424Z,99785.00
2023-02-22T05:27:56.112Z,99781.00
2023-02-22T05:30:30.053Z,99774.91
2023-02-22T05:32:59.343Z,99775.94
2023-02-22T05:35:28.934Z,99779.56
2023-02-22T05:37:57.540Z,99781.56
2023-02-22T05:40:27.918Z,99778.13
2023-02-22T05:42:56.805Z,99770.25
2023-02-22T05:45:29.062Z,99775.72
2023-02-22T05:47:58.082Z,99781.97
2023-02-22T05:50:27.235Z,99769.84
2023-02-22T05:52:56.179Z,99769.84
2023-02-22T05:55:25.432Z,99766.63
2023-02-22T05:57:54.665Z,99769.25
2023-02-22T06:00:27.400Z,99766.81
2023-02-22T06:02:57.400Z,99761.56
2023-02-22T06:05:26.146Z,99768.63
2023-02-22T06:07:54.606Z,99764.41
2023-02-22T06:10:23.443Z,99769.84
2023-02-22T06:12:54.054Z,99768.22
2023-02-22T06:15:26.322Z,99779.53
2023-02-22T06:17:56.675Z,99771.06
2023-02-22T06:20:27.372Z,99765.81
2023-02-22T06:22:58.796Z,99772.06
2023-02-22T06:25:31.220Z,99774.69
2023-02-22T06:28:00.035Z,99767.00
2023-02-22T06:30:31.119Z,99784.75
2023-02-22T06:32:59.515Z,99782.75
2023-02-22T06:35:27.868Z,99793.25
2023-02-22T06:37:56.185Z,99789.19
2023-02-22T06:40:24.445Z,99790.00
2023-02-22T06:42:53.715Z,99791.81
2023-02-22T06:45:22.306Z,99803.97
2023-02-22T06:47:52.033Z,99794.44
2023-02-22T06:50:23.797Z,99797.06
2023-02-22T06:52:52.882Z,99803.53
2023-02-22T06:55:25.475Z,99799.09
2023-02-22T06:57:54.136Z,99806.97
2023-02-22T07:00:25.772Z,99800.91
2023-02-22T07:02:56.880Z,99802.53
2023-02-22T07:05:27.319Z,99803.34
2023-02-22T07:08:03.293Z,99800.91
2023-02-22T07:10:34.074Z,99806.97
2023-02-22T07:13:03.453Z,99812.22
2023-02-22T07:15:33.715Z,99804.34
2023-02-22T07:18:03.639Z,99802.53
2023-02-22T07:20:32.703Z,99809.59
2023-02-22T07:23:01.614Z,99809.41
2023-02-22T07:25:29.925Z,99814.63
2023-02-22T07:27:58.439Z,99815.44
2023-02-22T07:30:31.096Z,99819.88
2023-02-22T07:33:02.861Z,99818.06
2023-02-22T07:35:33.287Z,99806.78
2023-02-22T07:38:01.689Z,99816.25
2023-02-22T07:40:30.415Z,99807.56
2023-02-22T07:43:01.267Z,99812.00
2023-02-22T07:45:32.524Z,99815.25
2023-02-22T07:48:04.804Z,99816.25
2023-02-22T07:50:35.012Z,99807.41
2023-02-22T07:53:06.520Z,99814.25
2023-02-22T07:55:35.809Z,99810.19
2023-02-22T07:58:07.910Z,99811.84
2023-02-22T08:00:39.268Z,99808.38
2023-02-22T08:03:11.501Z,99811.00
2023-02-22T08:05:42.455Z,99803.97
2023-02-22T08:08:10.862Z,99814.03
2023-02-22T08:10:39.238Z,99807.97
2023-02-22T08:13:07.639Z,99809.41
2023-02-22T08:15:38.225Z,99809.19
2023-02-22T08:18:10.893Z,99804.56
2023-02-22T08:20:40.487Z,99806.19
2023-02-22T08:23:09.825Z,99806.00
2023-02-22T08:25:38.211Z,99810.03
2023-02-22T08:28:09.023Z,99800.97
2023-02-22T08:30:40.619Z,99805.00
2023-02-22T08:33:14.468Z,99801.38
2023-02-22T08:35:43.817Z,99799.38
2023-02-22T08:38:20.396Z,99804.00
2023-02-22T08:40:50.379Z,99799.34
2023-02-22T08:43:20.011Z,99805.03
2023-02-22T08:45:48.913Z,99804.63
2023-02-22T08:48:20.750Z,99802.41
2023-02-22T08:50:49.927Z,99799.38
2023-02-22T08:53:19.128Z,99794.53
2023-02-22T08:55:47.832Z,99789.69
2023-02-22T08:58:16.221Z,99789.31
2023-02-22T09:00:45.167Z,99789.50
2023-02-22T09:03:15.566Z,99794.16
2023-02-22T09:05:45.976Z,99795.38
2023-02-22T09:08:14.417Z,99797.38
2023-02-22T09:10:42.797Z,99791.34
2023-02-22T09:13:11.186Z,99790.72
2023-02-22T09:15:40.755Z,99795.97
2023-02-22T09:18:14.593Z,99790.72
2023-02-22T09:20:44.507Z,99796.56
2023-02-22T09:23:14.533Z,99791.31
2023-02-22T09:25:42.922Z,99793.94
2023-02-22T09:28:11.222Z,99788.63
2023-02-22T09:30:39.586Z,99791.47
2023-02-22T09:33:11.076Z,99787.00
2023-02-22T09:35:42.468Z,99785.19
2023-02-22T09:38:13.031Z,99786.56
2023-02-22T09:40:49.479Z,99782.69
2023-02-22T09:43:36.545Z,99765.66
2023-02-22T09:46:20.317Z,99758.53
2023-02-22T09:49:03.177Z,99757.06
2023-02-22T09:51:41.250Z,99758.22
2023-02-22T09:54:24.013Z,99754.09
2023-02-22T09:56:58.500Z,99753.22
2023-02-22T09:59:32.883Z,99744.66
2023-02-22T10:02:22.135Z,99747.59
2023-02-22T10:04:58.989Z,99741.66
2023-02-22T10:07:34.003Z,99738.09
2023-02-22T10:10:06.517Z,99740.00
2023-02-22T10:12:47.255Z,99737.47
2023-02-22T10:15:42.326Z,99735.19
2023-02-22T10:19:22.515Z,99737.31
2023-02-22T10:22:08.688Z,99727.88
2023-02-22T10:24:54.166Z,99745.38
2023-02-22T10:27:32.822Z,99728.00
2023-02-22T10:30:23.400Z,99726.47
2023-02-22T10:32:59.991Z,99718.84
2023-02-22T10:35:32.847Z,99722.81
2023-02-22T10:38:16.561Z,99721.25
2023-02-22T10:40:49.594Z,99717.84
2023-02-22T10:43:19.986Z,99719.34
2023-02-22T10:45:48.533Z,99726.50
2023-02-22T10:48:21.100Z,99716.66
2023-02-22T10:50:50.598Z,99724.00
2023-02-22T10:53:18.961Z,99712.38
2023-02-22T10:56:13.842Z,99712.25
2023-02-22T10:58:51.332Z,99720.66
2023-02-22T11:01:23.829Z,99707.91
2023-02-22T11:04:00.269Z,99710.22
2023-02-22T11:06:29.060Z,99705.41
2023-02-22T11:09:10.323Z,99706.09
2023-02-22T11:11:41.219Z,99694.38
2023-02-22T11:14:11.778Z,99698.50
2023-02-22T11:16:44.176Z,99693.66
2023-02-22T11:19:25.789Z,99690.09
2023-02-22T11:21:58.706Z,99688.13
2023-02-22T11:24:37.316Z,99689.59
2023-02-22T11:27:27.084Z,99693.50
2023-02-22T11:30:07.717Z,99687.03
2023-02-22T11:32:36.571Z,99688.50
2023-02-22T11:35:38.663Z,99682.28
2023-02-22T11:38:28.788Z,99675.84
2023-02-22T11:41:15.504Z,99667.53
2023-02-22T11:43:46.246Z,99668.19
2023-02-22T11:46:20.111Z,99671.25
2023-02-22T11:48:59.424Z,99661.56
2023-02-22T11:51:46.376Z,99657.72
2023-02-22T11:54:31.289Z,99665.75
2023-02-22T11:57:17.215Z,99651.53
2023-02-22T12:00:02.715Z,99656.69
2023-02-22T12:02:57.468Z,99651.47
2023-02-22T12:05:40.570Z,99648.66
2023-02-22T12:08:22.283Z,99645.88
2023-02-22T12:11:06.370Z,99644.91
2023-02-22T12:13:59.884Z,99645.78
2023-02-22T12:16:44.215Z,99637.09
2023-02-22T12:19:27.060Z,99631.09
2023-02-22T12:22:02.410Z,99638.88
2023-02-22T12:24:38.674Z,99637.09
2023-02-22T12:27:13.269Z,99636.16
2023-02-22T12:29:48.108Z,99629.06
2023-02-22T12:32:22.473Z,99628.34
2023-02-22T12:34:57.287Z,99634.50
2023-02-22T12:37:30.806Z,99628.22
2023-02-22T12:40:08.464Z,99630.13
2023-02-22T12:42:48.898Z,99616.13
2023-02-22T12:45:27.726Z,99618.06
2023-02-22T12:48:07.512Z,99618.13
2023-02-22T12:50:38.748Z,99619.00
2023-02-22T12:53:19.889Z,99617.44
2023-02-22T12:55:56.277Z,99618.28
2023-02-22T12:58:31.348Z,99607.97
2023-02-22T13:01:06.956Z,99608.06
2023-02-22T13:03:39.937Z,99608.38
2023-02-22T13:06:27.197Z,99606.03
2023-02-22T13:09:10.600Z,99610.31
2023-02-22T13:11:45.115Z,99599.19
2023-02-22T13:14:41.983Z,99599.50
2023-02-22T13:17:21.435Z,99587.88
2023-02-22T13:19:57.005Z,99591.38
2023-02-22T13:22:36.457Z,99585.56
2023-02-22T13:25:11.316Z,99584.63
2023-02-22T13:27:45.818Z,99584.13
2023-02-22T13:30:23.657Z,99574.81
2023-02-22T13:33:26.180Z,99584.41
2023-02-22T13:36:18.968Z,99572.47
2023-02-22T13:39:38.024Z,99572.75
2023-02-22T13:42:36.184Z,99571.47
2023-02-22T13:45:49.825Z,99565.16
2023-02-22T13:48:52.854Z,99570.50
2023-02-22T13:51:45.253Z,99558.28
2023-02-22T13:54:24.201Z,99570.84
2023-02-22T13:56:55.434Z,99563.69
2023-02-22T13:59:30.097Z,99562.13
2023-02-22T14:01:59.064Z,99560.31
2023-02-22T14:04:44.059Z,99557.41
2023-02-22T14:07:55.089Z,99566.72
2023-02-22T14:10:51.091Z,99562.75
2023-02-22T14:13:22.517Z,99566.50
2023-02-22T14:16:25.357Z,99561.72
2023-02-22T14:19:06.399Z,99567.09
2023-02-22T14:21:36.069Z,99561.28
2023-02-22T14:24:15.875Z,99559.94
2023-02-22T14:26:57.355Z,99565.53
2023-02-22T14:29:25.955Z,99552.25
2023-02-22T14:32:07.160Z,99558.66
2023-02-22T14:34:49.871Z,99553.31
2023-02-22T14:37:24.973Z,99555.47
2023-02-22T14:39:58.669Z,99554.44
2023-02-22T14:42:34.101Z,99556.56
2023-02-22T14:45:17.305Z,99554.72
2023-02-22T14:47:54.391Z,99542.22
2023-02-22T14:50:41.546Z,99557.91
2023-02-22T14:53:25.360Z,99562.19
2023-02-22T14:59:21.587Z,99561.38
2023-02-22T15:02:05.704Z,99559.28
2023-02-22T15:04:35.616Z,99552.63
2023-02-22T15:07:27.258Z,99549.94
2023-02-22T15:10:20.778Z,99551.81
2023-02-22T15:13:09.715Z,99556.09
2023-02-22T15:15:43.862Z,99548.91
2023-02-22T15:18:27.145Z,99553.97
2023-02-22T15:20:59.657Z,99557.22
2023-02-22T15:23:33.357Z,99547.59
2023-02-22T15:26:03.147Z,99548.97
2023-02-22T15:28:32.272Z,99551.38
2023-02-22T15:31:25.868Z,99534.88
2023-02-22T15:33:55.441Z,99540.19
2023-02-22T15:36:31.048Z,99544.72
2023-02-22T15:38:59.522Z,99540.47
2023-02-22T15:41:32.788Z,99534.53
2023-02-22T15:44:22.753Z,99534.00
2023-02-22T15:46:55.283Z,99531.59
2023-02-22T15:49:25.867Z,99534.53
2023-02-22T15:52:19.750Z,99533.44
2023-02-22T15:54:51.911Z,99537.16
2023-02-22T15:57:25.415Z,99530.22
2023-02-22T15:59:57.188Z,99528.63
2023-02-22T16:02:37.083Z,99541.38
2023-02-22T16:05:11.648Z,99533.69
2023-02-22T16:07:46.069Z,99538.44
2023-02-22T16:10:30.705Z,99540.56
2023-02-22T16:13:19.158Z,99545.59
2023-02-22T16:16:00.891Z,99547.44
2023-02-22T16:18:33.749Z,99545.84
2023-02-22T16:21:11.830Z,99548.78
2023-02-22T16:23:51.124Z,99546.34
2023-02-22T16:26:28.806Z,99553.81
2023-02-22T16:28:59.575Z,99552.44
2023-02-22T16:31:32.076Z,99564.38
2023-02-22T16:34:01.466Z,99553.22
2023-02-22T16:36:41.860Z,99553.16
2023-02-22T16:39:20.447Z,99561.69
2023-02-22T16:41:48.885Z,99558.47
2023-02-22T16:44:17.474Z,99551.00
2023-02-22T16:46:45.944Z,99573.03
2023-02-22T16:49:15.316Z,99567.16
2023-02-22T16:51:47.329Z,99568.19
2023-02-22T16:54:25.496Z,99575.03
2023-02-22T16:56:56.150Z,99570.50
2023-02-22T16:59:24.744Z,99572.06
2023-02-22T17:01:53.146Z,99572.81
2023-02-22T17:04:25.990Z,99578.91
2023-02-22T17:06:54.950Z,99570.06
2023-02-22T17:09:24.632Z,99573.50
2023-02-22T17:11:54.198Z,99580.56
2023-02-22T17:14:27.022Z,99581.31
2023-02-22T17:16:55.356Z,99582.09
2023-02-22T17:19:25.514Z,99590.78
2023-02-22T17:21:54.119Z,99596.31
2023-02-22T17:24:29.148Z,99593.34
2023-02-22T17:26:59.741Z,99603.66
2023-02-22T17:29:28.923Z,99602.78
2023-02-22T17:31:57.775Z,99608.84
2023-02-22T17:34:26.319Z,99609.63
2023-02-22T17:36:54.827Z,99608.47
2023-02-22T17:39:24.559Z,99614.78
2023-02-22T17:41:57.563Z,99617.38
2023-02-22T17:44:26.232Z,99610.94
2023-02-22T17:46:54.751Z,99611.94
2023-02-22T17:49:23.093Z,99609.00
2023-02-22T17:51:53.162Z,99607.06
2023-02-22T17:54:21.546Z,99618.66
2023-02-22T17:56:51.260Z,99615.72
2023-02-22T17:59:19.623Z,99616.19
2023-02-22T18:01:48.965Z,99616.69
2023-02-22T18:04:17.356Z,99616.38
2023-02-22T18:06:46.686Z,99619.50
2023-02-22T18:09:17.783Z,99619.19
2023-02-22T18:11:46.180Z,99611.97
2023-02-22T18:14:15.888Z,99614.00
2023-02-22T18:16:46.865Z,99619.00
2023-02-22T18:19:20.382Z,99619.75
2023-02-22T18:21:50.425Z,99621.03
2023-02-22T18:24:18.768Z,99629.44
2023-02-22T18:26:47.586Z,99622.81
2023-02-22T18:29:17.367Z,99624.88
2023-02-22T18:31:46.424Z,99616.63
2023-02-22T18:34:15.853Z,99620.53
2023-02-22T18:36:44.202Z,99621.06
2023-02-22T18:39:13.092Z,99624.97
2023-02-22T18:41:41.459Z,99624.41
2023-02-22T18:44:11.147Z,99628.34
2023-02-22T18:46:40.966Z,99626.19
2023-02-22T18:49:12.749Z,99624.28
2023-02-22T18:51:43.630Z,99627.16
2023-02-22T18:54:13.757Z,99621.78
2023-02-22T18:56:42.220Z,99616.69
2023-02-22T18:59:13.272Z,99625.94
2023-02-22T19:01:48.855Z,99621.34
2023-02-22T19:04:18.280Z,99622.66
2023-02-22T19:06:48.429Z,99623.34
2023-02-22T19:09:17.238Z,99627.06
2023-02-22T19:11:46.773Z,99628.09
2023-02-22T19:14:16.587Z,99620.88
2023-02-22T19:16:47.124Z,99619.72
2023-02-22T19:19:20.717Z,99615.47
2023-02-22T19:21:49.566Z,99611.44
2023-02-22T19:24:20.532Z,99618.03
2023-02-22T19:26:50.830Z,99615.06
2023-02-22T19:29:22.310Z,99614.97
2023-02-22T19:31:53.897Z,99608.31
2023-02-22T19:34:24.855Z,99609.34
2023-02-22T19:36:53.394Z,99603.72
2023-02-22T19:41:52.466Z,99612.97
2023-02-22T19:44:20.853Z,99608.13
2023-02-22T19:46:49.180Z,99609.41
2023-02-22T19:49:18.992Z,99623.91
2023-02-22T19:51:47.282Z,99622.31
2023-02-22T19:54:21.281Z,99626.22
2023-02-22T19:56:51.875Z,99626.47
2023-02-22T19:59:23.091Z,99624.88
2023-02-22T20:01:54.581Z,99624.25
2023-02-22T20:04:25.268Z,99630.03
2023-02-22T20:06:55.180Z,99631.06
2023-02-22T20:09:29.997Z,99635.78
2023-02-22T20:11:58.587Z,99637.88
2023-02-22T20:14:30.538Z,99645.03
2023-02-22T20:16:59.767Z,99637.56
2023-02-22T20:19:29.893Z,99634.31
2023-02-22T20:22:00.288Z,99637.22
2023-02-22T20:24:28.719Z,99641.94
2023-02-22T20:26:58.304Z,99639.78
2023-02-22T20:29:30.471Z,99648.72
2023-02-22T20:32:00.609Z,99642.88
2023-02-22T20:34:32.539Z,99649.44
2023-02-22T20:37:01.558Z,99644.41
2023-02-22T20:39:30.504Z,99631.63
2023-02-22T20:42:00.460Z,99647.72
2023-02-22T20:44:28.850Z,99645.31
2023-02-22T20:46:57.456Z,99635.78
2023-02-22T20:49:27.207Z,99649.47
2023-02-22T20:51:56.885Z,99643.38
2023-02-22T20:54:25.555Z,99646.25
2023-02-22T20:56:53.943Z,99651.19
2023-02-22T20:59:22.781Z,99650.41
2023-02-22T21:01:53.065Z,99658.59
2023-02-22T21:04:22.682Z,99657.19
2023-02-22T21:06:51.969Z,99643.38
2023-02-22T21:09:22.647Z,99648.13
2023-02-22T21:11:51.331Z,99649.38
2023-02-22T21:14:20.140Z,99645.34
2023-02-22T21:16:51.140Z,99645.34
2023-02-22T21:19:25.443Z,99637.91
2023-02-22T21:21:56.406Z,99645.84
2023-02-22T21:24:27.792Z,99644.44
2023-02-22T21:26:58.583Z,99639.38
2023-02-22T21:29:27.704Z,99651.81
2023-02-22T21:31:56.876Z,99654.69
2023-02-22T21:34:25.937Z,99654.91
2023-02-22T21:36:54.556Z,99656.75
2023-02-22T21:39:28.128Z,99662.28
2023-02-22T21:42:00.455Z,99654.56
2023-02-22T21:44:30.016Z,99660.91
2023-02-22T21:46:58.458Z,99656.06
2023-02-22T21:49:26.934Z,99653.41
2023-02-22T21:51:56.500Z,99658.94
2023-02-22T21:54:25.333Z,99660.00
2023-02-22T21:56:55.475Z,99650.69
2023-02-22T21:59:25.254Z,99660.66
2023-02-22T22:01:56.662Z,99654.81
2023-02-22T22:04:28.467Z,99654.81
2023-02-22T22:06:59.023Z,99655.88
2023-02-22T22:09:32.891Z,99658.50
2023-02-22T22:12:05.113Z,99654.47
2023-02-22T22:14:36.119Z,99645.75
2023-02-22T22:17:07.894Z,99649.41
2023-02-22T22:19:40.394Z,99643.56
2023-02-22T22:22:09.380Z,99646.19
2023-02-22T22:24:41.391Z,99643.56
2023-02-22T22:27:12.333Z,99650.91
2023-02-22T22:29:43.446Z,99645.59
2023-02-22T22:32:12.002Z,99644.25
2023-02-22T22:34:40.495Z,99648.50
2023-02-22T22:37:08.893Z,99641.38
2023-02-22T22:39:38.515Z,99648.50
2023-02-22T22:42:09.101Z,99640.31
2023-02-22T22:44:41.983Z,99641.38
2023-02-22T22:47:13.341Z,99635.50
2023-02-22T22:49:42.580Z,99640.78
2023-02-22T22:52:13.905Z,99636.31
2023-02-22T22:54:43.224Z,99637.34
2023-02-22T22:57:12.301Z,99642.63
2023-02-22T22:59:40.776Z,99646.91
2023-02-22T23:02:10.974Z,99642.41
2023-02-22T23:04:40.655Z,99641.63
2023-02-22T23:07:08.968Z,99638.97
2023-02-22T23:09:38.982Z,99645.06
2023-02-22T23:12:09.599Z,99647.69
2023-02-22T23:14:44.155Z,99648.72
2023-02-22T23:17:15.253Z,99648.72
2023-02-22T23:19:46.364Z,99640.78
2023-02-22T23:22:15.222Z,99643.22
2023-02-22T23:24:45.050Z,99645.84
2023-02-22T23:27:13.610Z,99650.09
2023-02-22T23:29:46.535Z,99643.22
2023-02-22T23:32:15.263Z,99643.22
2023-02-22T23:34:44.985Z,99650.34
2023-02-22T23:37:14.117Z,99637.94
2023-02-22T23:39:42.703Z,99642.41
2023-02-22T23:42:11.008Z,99647.69
2023-02-22T23:44:40.240Z,99655.63
2023-02-22T23:47:09.673Z,99641.63
2023-02-22T23:49:38.940Z,99654.59
2023-02-22T23:52:09.971Z,99649.31
2023-02-22T23:54:43.859Z,99649.75
2023-02-22T23:57:12.457Z,99641.63
2023-02-22T23:59:40.817Z,99654.00
